createdAt,value
2019-03-29T00:00:49.334Z,10.78
2019-03-29T00:02:24.890Z,10.87
2019-03-29T00:04:00.852Z,10.70
2019-03-29T00:05:36.138Z,10.67
2019-03-29T00:07:11.333Z,10.69
2019-03-29T00:08:46.578Z,10.84
2019-03-29T00:10:21.751Z,10.85
2019-03-29T00:11:57.032Z,10.78
2019-03-29T00:13:32.248Z,10.67
2019-03-29T00:15:08.084Z,10.47
2019-03-29T00:16:43.576Z,10.51
2019-03-29T00:18:18.754Z,10.52
2019-03-29T00:19:54.913Z,10.66
2019-03-29T00:21:30.151Z,10.67
2019-03-29T00:23:05.424Z,10.51
2019-03-29T00:24:41.107Z,10.46
2019-03-29T00:26:16.420Z,10.54
2019-03-29T00:27:51.605Z,10.66
2019-03-29T00:29:26.806Z,10.48
2019-03-29T00:31:02.023Z,10.64
2019-03-29T00:32:37.192Z,10.49
2019-03-29T00:34:12.363Z,10.53
2019-03-29T00:35:48.539Z,10.60
2019-03-29T00:37:23.742Z,10.47
2019-03-29T00:38:58.946Z,10.53
2019-03-29T00:40:34.208Z,10.45
2019-03-29T00:42:09.408Z,10.48
2019-03-29T00:43:44.584Z,10.48
2019-03-29T00:45:19.781Z,10.49
2019-03-29T00:46:55.002Z,10.51
2019-03-29T00:48:30.189Z,10.56
2019-03-29T00:50:06.333Z,10.44
2019-03-29T00:51:42.185Z,10.56
2019-03-29T00:53:17.366Z,10.49
2019-03-29T00:54:52.566Z,10.46
2019-03-29T00:56:27.770Z,10.46
2019-03-29T00:58:03.353Z,10.42
2019-03-29T00:59:38.590Z,10.26
2019-03-29T01:01:13.821Z,10.27
2019-03-29T01:02:49.191Z,10.45
2019-03-29T01:04:24.376Z,10.50
2019-03-29T01:05:59.583Z,10.55
2019-03-29T01:07:34.762Z,10.36
2019-03-29T01:09:09.961Z,10.57
2019-03-29T01:10:45.123Z,10.50
2019-03-29T01:12:20.309Z,10.46
2019-03-29T01:13:55.494Z,10.54
2019-03-29T01:15:30.670Z,10.45
2019-03-29T01:17:05.927Z,10.28
2019-03-29T01:18:41.096Z,10.32
2019-03-29T01:20:16.348Z,10.36
2019-03-29T01:21:51.536Z,10.55
2019-03-29T01:23:26.699Z,10.42
2019-03-29T01:25:01.900Z,10.46
2019-03-29T01:26:37.118Z,10.35
2019-03-29T01:28:12.365Z,10.48
2019-03-29T01:29:47.663Z,10.30
2019-03-29T01:31:22.891Z,10.49
2019-03-29T01:32:58.926Z,10.59
2019-03-29T01:34:34.242Z,10.67
2019-03-29T01:36:09.511Z,10.64
2019-03-29T01:37:45.987Z,10.63
2019-03-29T01:39:21.271Z,10.50
2019-03-29T01:41:00.985Z,10.40
2019-03-29T01:42:36.358Z,10.41
2019-03-29T01:44:11.555Z,10.39
2019-03-29T01:45:46.785Z,10.41
2019-03-29T01:47:21.978Z,10.54
2019-03-29T01:48:57.175Z,10.43
2019-03-29T01:50:32.349Z,10.27
2019-03-29T01:52:07.613Z,10.37
2019-03-29T01:53:42.831Z,10.41
2019-03-29T01:55:18.004Z,10.38
2019-03-29T01:56:54.152Z,10.29
2019-03-29T01:58:29.343Z,10.29
2019-03-29T02:00:05.228Z,10.34
2019-03-29T02:01:40.491Z,10.40
2019-03-29T02:03:15.680Z,10.42
2019-03-29T02:04:50.864Z,10.47
2019-03-29T02:06:26.037Z,10.31
2019-03-29T02:08:01.226Z,10.33
2019-03-29T02:09:36.521Z,10.32
2019-03-29T02:11:11.747Z,10.43
2019-03-29T02:12:46.953Z,10.35
2019-03-29T02:14:22.401Z,10.29
2019-03-29T02:15:57.581Z,10.46
2019-03-29T02:17:32.763Z,10.48
2019-03-29T02:19:09.018Z,10.48
2019-03-29T02:20:44.495Z,10.40
2019-03-29T02:22:19.686Z,10.36
2019-03-29T02:23:54.867Z,10.23
2019-03-29T02:25:30.049Z,10.41
2019-03-29T02:27:05.425Z,10.36
2019-03-29T02:28:40.601Z,10.38
2019-03-29T02:30:16.188Z,10.38
2019-03-29T02:31:51.366Z,10.27
2019-03-29T02:33:26.574Z,10.30
2019-03-29T02:35:01.782Z,10.28
2019-03-29T02:36:36.971Z,10.30
2019-03-29T02:38:12.152Z,10.33
2019-03-29T02:39:47.348Z,10.39
2019-03-29T02:41:22.633Z,10.28
2019-03-29T02:42:58.222Z,10.38
2019-03-29T02:44:34.810Z,10.29
2019-03-29T02:46:10.120Z,10.16
2019-03-29T02:47:45.330Z,10.24
2019-03-29T02:49:20.511Z,10.29
2019-03-29T02:50:55.713Z,10.31
2019-03-29T02:52:30.977Z,10.21
2019-03-29T02:54:06.164Z,10.22
2019-03-29T02:55:41.370Z,10.27
2019-03-29T02:57:16.545Z,10.17
2019-03-29T02:58:51.748Z,10.10
2019-03-29T03:00:26.952Z,10.15
2019-03-29T03:02:02.315Z,10.18
2019-03-29T03:03:37.521Z,10.26
2019-03-29T03:05:13.017Z,10.35
2019-03-29T03:06:48.204Z,10.27
2019-03-29T03:08:23.455Z,10.32
2019-03-29T03:09:58.731Z,10.23
2019-03-29T03:11:33.965Z,10.26
2019-03-29T03:13:09.141Z,10.19
2019-03-29T03:14:44.325Z,10.27
2019-03-29T03:16:19.505Z,10.16
2019-03-29T03:17:54.724Z,10.30
2019-03-29T03:19:29.936Z,10.26
2019-03-29T03:21:05.208Z,10.40
2019-03-29T03:22:41.460Z,10.23
2019-03-29T03:24:16.645Z,10.23
2019-03-29T03:25:51.863Z,10.07
2019-03-29T03:27:27.026Z,10.13
2019-03-29T03:29:03.276Z,10.03
2019-03-29T03:30:38.594Z,9.89
2019-03-29T03:32:13.746Z,9.98
2019-03-29T03:33:48.925Z,9.99
2019-03-29T03:35:24.108Z,10.06
2019-03-29T03:36:59.283Z,9.87
2019-03-29T03:38:35.438Z,9.89
2019-03-29T03:40:11.111Z,9.95
2019-03-29T03:41:46.513Z,9.91
2019-03-29T03:43:21.675Z,9.86
2019-03-29T03:44:56.887Z,9.88
2019-03-29T03:46:32.061Z,9.91
2019-03-29T03:48:07.222Z,10.00
2019-03-29T03:49:42.530Z,9.93
2019-03-29T03:51:17.814Z,9.89
2019-03-29T03:52:52.990Z,10.09
2019-03-29T03:54:28.180Z,10.07
2019-03-29T03:56:04.696Z,10.08
2019-03-29T03:57:39.863Z,10.00
2019-03-29T03:59:15.329Z,10.09
2019-03-29T04:00:54.426Z,10.12
2019-03-29T04:02:29.639Z,9.91
2019-03-29T04:04:04.844Z,9.77
2019-03-29T04:05:40.026Z,9.85
2019-03-29T04:07:15.250Z,9.96
2019-03-29T04:08:50.513Z,9.89
2019-03-29T04:10:25.681Z,9.90
2019-03-29T04:12:00.856Z,9.91
2019-03-29T04:13:36.059Z,9.91
2019-03-29T04:15:11.399Z,9.87
2019-03-29T04:16:46.577Z,9.75
2019-03-29T04:18:21.856Z,9.84
2019-03-29T04:19:57.049Z,9.80
2019-03-29T04:21:32.221Z,9.83
2019-03-29T04:23:07.398Z,9.71
2019-03-29T04:24:42.607Z,9.89
2019-03-29T04:26:17.824Z,9.83
2019-03-29T04:27:53.113Z,9.70
2019-03-29T04:29:28.290Z,9.73
2019-03-29T04:31:03.667Z,9.65
2019-03-29T04:32:38.837Z,9.53
2019-03-29T04:34:14.269Z,9.57
2019-03-29T04:35:49.450Z,9.50
2019-03-29T04:37:24.609Z,9.43
2019-03-29T04:38:59.868Z,9.39
2019-03-29T04:40:35.161Z,9.30
2019-03-29T04:42:10.522Z,9.29
2019-03-29T04:43:45.797Z,9.27
2019-03-29T04:45:20.965Z,9.30
2019-03-29T04:46:56.318Z,9.26
2019-03-29T04:48:31.487Z,9.15
2019-03-29T04:50:06.799Z,9.13
2019-03-29T04:51:42.079Z,9.01
2019-03-29T04:53:17.262Z,9.05
2019-03-29T04:54:52.441Z,9.06
2019-03-29T04:56:27.632Z,9.02
2019-03-29T04:58:03.819Z,9.01
2019-03-29T04:59:39.005Z,8.99
2019-03-29T05:01:17.266Z,8.98
2019-03-29T05:02:51.167Z,8.97
2019-03-29T05:04:26.339Z,8.88
2019-03-29T05:06:01.520Z,8.68
2019-03-29T05:07:37.149Z,8.65
2019-03-29T05:09:12.528Z,8.59
2019-03-29T05:10:47.719Z,8.55
2019-03-29T05:12:22.890Z,8.65
2019-03-29T05:13:58.071Z,8.65
2019-03-29T05:15:33.252Z,8.79
2019-03-29T05:17:09.679Z,8.79
2019-03-29T05:18:44.845Z,8.84
2019-03-29T05:20:20.039Z,8.88
2019-03-29T05:21:55.234Z,8.94
2019-03-29T05:23:31.361Z,8.90
2019-03-29T05:25:06.669Z,9.00
2019-03-29T05:26:41.869Z,9.08
2019-03-29T05:28:17.033Z,9.02
2019-03-29T05:29:52.212Z,8.97
2019-03-29T05:31:27.391Z,9.09
2019-03-29T05:33:03.830Z,9.09
2019-03-29T05:34:39.000Z,9.06
2019-03-29T05:36:14.191Z,9.10
2019-03-29T05:37:49.383Z,9.14
2019-03-29T05:39:24.555Z,9.23
2019-03-29T05:40:59.725Z,9.42
2019-03-29T05:42:34.973Z,9.31
2019-03-29T05:44:10.253Z,9.43
2019-03-29T05:45:45.481Z,9.53
2019-03-29T05:47:20.720Z,9.52
2019-03-29T05:48:55.979Z,9.54
2019-03-29T05:50:31.180Z,9.54
2019-03-29T05:52:06.381Z,9.85
2019-03-29T05:53:41.562Z,9.82
2019-03-29T05:55:18.715Z,9.77
2019-03-29T05:56:53.898Z,9.99
2019-03-29T05:58:29.061Z,10.05
2019-03-29T06:00:04.738Z,10.33
2019-03-29T06:01:39.911Z,12.49
2019-03-29T06:03:15.079Z,14.29
2019-03-29T06:04:50.346Z,13.52
2019-03-29T06:06:25.912Z,11.64
2019-03-29T06:08:01.067Z,11.15
2019-03-29T06:09:36.266Z,13.20
2019-03-29T06:11:11.561Z,15.78
2019-03-29T06:12:46.757Z,17.43
2019-03-29T06:14:21.940Z,16.97
2019-03-29T06:15:57.129Z,18.47
2019-03-29T06:17:32.333Z,19.73
2019-03-29T06:19:07.522Z,19.74
2019-03-29T06:20:42.706Z,18.96
2019-03-29T06:22:19.763Z,19.03
2019-03-29T06:23:54.972Z,20.58
2019-03-29T06:25:30.143Z,18.84
2019-03-29T06:27:06.488Z,20.05
2019-03-29T06:28:41.668Z,20.64
2019-03-29T06:30:21.510Z,21.43
2019-03-29T06:31:56.801Z,21.43
2019-03-29T06:33:31.981Z,21.01
2019-03-29T06:35:07.662Z,21.15
2019-03-29T06:36:43.454Z,21.67
2019-03-29T06:38:19.230Z,22.63
2019-03-29T06:39:55.099Z,23.52
2019-03-29T06:41:30.281Z,22.88
2019-03-29T06:43:05.974Z,24.00
2019-03-29T06:44:44.187Z,23.54
2019-03-29T06:46:18.072Z,22.70
2019-03-29T06:47:53.238Z,23.34
2019-03-29T06:49:28.433Z,23.73
2019-03-29T06:51:03.619Z,23.66
2019-03-29T06:52:38.811Z,23.02
2019-03-29T06:54:14.004Z,23.87
2019-03-29T06:55:49.227Z,24.49
2019-03-29T06:57:24.417Z,24.00
2019-03-29T06:58:59.980Z,25.57
2019-03-29T07:00:35.188Z,25.65
2019-03-29T07:02:10.398Z,24.96
2019-03-29T07:03:45.581Z,25.49
2019-03-29T07:05:20.764Z,24.70
2019-03-29T07:06:55.947Z,24.55
2019-03-29T07:08:31.211Z,25.18
2019-03-29T07:10:06.809Z,26.30
2019-03-29T07:11:41.997Z,25.73
2019-03-29T07:13:17.183Z,25.77
2019-03-29T07:14:52.358Z,27.09
2019-03-29T07:16:27.539Z,27.64
2019-03-29T07:18:02.833Z,26.81
2019-03-29T07:19:38.026Z,27.49
2019-03-29T07:21:21.426Z,27.00
2019-03-29T07:22:50.130Z,24.26
2019-03-29T07:24:25.367Z,26.32
2019-03-29T07:25:59.666Z,25.48
2019-03-29T07:27:44.757Z,28.19
2019-03-29T07:29:09.626Z,27.89
2019-03-29T07:30:43.757Z,26.46
2019-03-29T07:32:17.734Z,27.21
2019-03-29T07:33:51.689Z,26.97
2019-03-29T07:35:25.590Z,25.67
2019-03-29T07:36:59.509Z,26.99
2019-03-29T07:38:35.111Z,26.64
2019-03-29T07:40:09.035Z,25.66
2019-03-29T07:41:43.034Z,26.97
2019-03-29T07:43:16.974Z,26.83
2019-03-29T07:44:50.889Z,27.82
2019-03-29T07:46:24.816Z,23.24
2019-03-29T07:47:58.722Z,26.40
2019-03-29T07:49:32.647Z,25.45
2019-03-29T07:51:06.652Z,25.99
2019-03-29T07:52:40.649Z,27.74
2019-03-29T07:54:14.593Z,25.05
2019-03-29T07:55:48.530Z,25.01
2019-03-29T07:57:22.475Z,25.60
2019-03-29T07:58:57.437Z,25.40
2019-03-29T08:00:31.358Z,26.11
2019-03-29T08:02:05.271Z,25.32
2019-03-29T08:03:39.187Z,26.18
2019-03-29T08:05:13.094Z,26.53
2019-03-29T08:06:47.017Z,26.10
2019-03-29T08:08:24.651Z,25.75
2019-03-29T08:09:57.792Z,24.90
2019-03-29T08:11:40.104Z,23.07
2019-03-29T08:13:07.385Z,21.41
2019-03-29T08:14:41.314Z,20.84
2019-03-29T08:16:15.258Z,20.58
2019-03-29T08:17:49.240Z,19.70
2019-03-29T08:19:23.169Z,20.45
2019-03-29T08:20:57.082Z,19.32
2019-03-29T08:22:31.086Z,19.09
2019-03-29T08:24:05.096Z,19.32
2019-03-29T08:25:39.089Z,19.52
2019-03-29T08:27:13.082Z,20.50
2019-03-29T08:28:46.998Z,19.46
2019-03-29T08:30:21.015Z,19.37
2019-03-29T08:31:55.625Z,19.66
2019-03-29T08:33:29.904Z,19.44
2019-03-29T08:35:03.887Z,19.82
2019-03-29T08:36:37.923Z,19.15
2019-03-29T08:38:11.925Z,18.90
2019-03-29T08:39:45.906Z,20.34
2019-03-29T08:41:19.870Z,19.75
2019-03-29T08:42:53.794Z,19.60
2019-03-29T08:44:27.718Z,19.42
2019-03-29T08:46:01.650Z,19.41
2019-03-29T08:47:35.584Z,19.96
2019-03-29T08:49:09.712Z,18.77
2019-03-29T08:50:43.641Z,19.59
2019-03-29T08:52:17.601Z,19.31
2019-03-29T08:53:51.619Z,18.61
2019-03-29T08:55:25.706Z,19.55
2019-03-29T08:56:59.690Z,21.16
2019-03-29T08:58:33.704Z,18.81
2019-03-29T09:00:07.765Z,18.73
2019-03-29T09:01:41.918Z,18.78
2019-03-29T09:03:15.855Z,18.84
2019-03-29T09:04:49.841Z,19.09
2019-03-29T09:06:23.830Z,19.89
2019-03-29T09:07:57.780Z,19.41
2019-03-29T09:09:32.690Z,18.81
2019-03-29T09:11:07.805Z,18.09
2019-03-29T09:12:41.870Z,18.46
2019-03-29T09:14:15.789Z,20.10
2019-03-29T09:15:49.723Z,20.00
2019-03-29T09:17:23.713Z,19.92
2019-03-29T09:18:57.655Z,19.23
2019-03-29T09:20:34.237Z,18.96
2019-03-29T09:22:07.262Z,19.79
2019-03-29T09:23:41.198Z,18.91
2019-03-29T09:25:15.190Z,20.60
2019-03-29T09:26:49.117Z,21.29
2019-03-29T09:28:23.069Z,19.88
2019-03-29T09:29:57.050Z,21.10
2019-03-29T09:31:30.969Z,19.36
2019-03-29T09:33:04.976Z,19.80
2019-03-29T09:34:39.119Z,19.82
2019-03-29T09:36:13.119Z,18.73
2019-03-29T09:37:47.041Z,19.06
2019-03-29T09:39:21.106Z,18.28
2019-03-29T09:40:58.742Z,19.63
2019-03-29T09:42:30.872Z,19.02
2019-03-29T09:44:04.993Z,18.62
2019-03-29T09:45:41.121Z,20.15
2019-03-29T09:47:14.601Z,20.00
2019-03-29T09:48:48.653Z,21.26
2019-03-29T09:50:23.026Z,18.98
2019-03-29T09:51:57.373Z,19.10
2019-03-29T09:53:31.303Z,18.84
2019-03-29T09:55:05.346Z,18.70
2019-03-29T09:56:39.660Z,18.42
2019-03-29T09:58:16.370Z,18.14
2019-03-29T09:59:49.394Z,19.08
2019-03-29T10:01:24.479Z,20.32
2019-03-29T10:02:58.502Z,20.10
2019-03-29T10:04:32.433Z,18.73
2019-03-29T10:06:06.358Z,19.88
2019-03-29T10:07:40.276Z,18.58
2019-03-29T10:09:14.279Z,18.64
2019-03-29T10:10:48.266Z,20.35
2019-03-29T10:12:22.208Z,21.33
2019-03-29T10:13:56.141Z,20.46
2019-03-29T10:15:30.067Z,19.86
2019-03-29T10:17:04.033Z,20.02
2019-03-29T10:18:38.050Z,19.73
2019-03-29T10:20:12.066Z,19.52
2019-03-29T10:21:45.973Z,19.13
2019-03-29T10:23:19.897Z,19.14
2019-03-29T10:24:53.849Z,19.63
2019-03-29T10:26:27.847Z,19.70
2019-03-29T10:28:01.780Z,19.04
2019-03-29T10:29:35.710Z,18.72
2019-03-29T10:31:09.722Z,18.44
2019-03-29T10:32:43.672Z,18.88
2019-03-29T10:34:17.662Z,19.57
2019-03-29T10:35:52.961Z,19.49
2019-03-29T10:37:27.246Z,19.18
2019-03-29T10:39:01.156Z,19.41
2019-03-29T10:40:36.830Z,19.73
2019-03-29T10:42:10.745Z,20.03
2019-03-29T10:43:44.661Z,19.50
2019-03-29T10:45:18.722Z,19.57
2019-03-29T10:46:52.644Z,18.72
2019-03-29T10:48:26.554Z,18.60
2019-03-29T10:50:00.474Z,19.30
2019-03-29T10:51:34.424Z,19.77
2019-03-29T10:53:08.349Z,18.90
2019-03-29T10:54:42.305Z,18.97
2019-03-29T10:56:16.218Z,19.08
2019-03-29T10:57:50.310Z,19.17
2019-03-29T10:59:27.633Z,18.82
2019-03-29T11:00:59.863Z,18.37
2019-03-29T11:02:33.867Z,17.98
2019-03-29T11:04:07.792Z,18.10
2019-03-29T11:05:41.763Z,18.19
2019-03-29T11:07:15.789Z,18.14
2019-03-29T11:08:49.767Z,18.16
2019-03-29T11:10:30.074Z,17.77
2019-03-29T11:12:04.217Z,17.68
2019-03-29T11:13:40.816Z,17.61
2019-03-29T11:15:13.791Z,17.87
2019-03-29T11:16:47.701Z,17.48
2019-03-29T11:18:21.633Z,17.62
2019-03-29T11:19:55.545Z,17.77
2019-03-29T11:21:29.485Z,17.96
2019-03-29T11:23:03.770Z,18.27
2019-03-29T11:24:37.703Z,18.07
2019-03-29T11:26:11.609Z,18.24
2019-03-29T11:27:45.556Z,17.59
2019-03-29T11:29:19.586Z,17.41
2019-03-29T11:30:54.621Z,17.37
2019-03-29T11:32:28.542Z,16.87
2019-03-29T11:34:02.492Z,17.26
2019-03-29T11:35:36.733Z,17.15
2019-03-29T11:37:11.705Z,17.70
2019-03-29T11:38:45.636Z,17.33
2019-03-29T11:40:19.605Z,16.71
2019-03-29T11:41:53.533Z,17.16
2019-03-29T11:43:27.610Z,16.41
2019-03-29T11:45:02.742Z,16.59
2019-03-29T11:46:36.675Z,16.69
2019-03-29T11:48:10.730Z,17.04
2019-03-29T11:49:44.769Z,17.12
2019-03-29T11:51:20.044Z,17.56
2019-03-29T11:52:54.166Z,17.30
2019-03-29T11:54:28.094Z,17.23
2019-03-29T11:56:02.138Z,17.34
2019-03-29T11:57:36.064Z,17.20
2019-03-29T11:59:10.059Z,17.18
2019-03-29T12:00:43.982Z,17.34
2019-03-29T12:02:30.684Z,17.14
2019-03-29T12:03:53.770Z,17.12
2019-03-29T12:05:27.698Z,17.00
2019-03-29T12:07:03.565Z,17.10
2019-03-29T12:08:38.342Z,16.92
2019-03-29T12:10:12.260Z,16.44
2019-03-29T12:11:46.202Z,16.78
2019-03-29T12:13:20.210Z,17.22
2019-03-29T12:14:54.136Z,17.33
2019-03-29T12:16:28.110Z,16.84
2019-03-29T12:18:02.039Z,16.75
2019-03-29T12:19:35.942Z,16.87
2019-03-29T12:21:09.873Z,16.59
2019-03-29T12:22:43.821Z,16.79
2019-03-29T12:24:17.746Z,16.49
2019-03-29T12:25:51.674Z,16.30
2019-03-29T12:27:25.666Z,16.59
2019-03-29T12:28:59.627Z,16.82
2019-03-29T12:30:33.521Z,16.92
2019-03-29T12:32:07.519Z,16.91
2019-03-29T12:33:41.529Z,16.57
2019-03-29T12:35:15.466Z,16.69
2019-03-29T12:36:49.383Z,17.04
2019-03-29T12:38:23.303Z,16.85
2019-03-29T12:39:57.222Z,16.53
2019-03-29T12:41:31.162Z,16.45
2019-03-29T12:43:05.201Z,16.90
2019-03-29T12:44:39.158Z,17.00
2019-03-29T12:46:13.190Z,17.02
2019-03-29T12:47:47.097Z,17.15
2019-03-29T12:49:21.104Z,17.27
2019-03-29T12:50:55.113Z,17.41
2019-03-29T12:52:29.118Z,17.32
2019-03-29T12:54:03.028Z,16.66
2019-03-29T12:55:36.943Z,16.63
2019-03-29T12:57:10.897Z,16.78
2019-03-29T12:58:44.881Z,16.38
2019-03-29T13:00:18.873Z,16.58
2019-03-29T13:01:52.794Z,16.16
2019-03-29T13:03:26.734Z,16.47
2019-03-29T13:05:00.694Z,16.13
2019-03-29T13:06:34.661Z,16.29
2019-03-29T13:08:08.648Z,16.63
2019-03-29T13:09:42.575Z,16.86
2019-03-29T13:11:16.622Z,16.82
2019-03-29T13:12:50.610Z,16.84
2019-03-29T13:14:24.554Z,16.67
2019-03-29T13:15:58.558Z,16.35
2019-03-29T13:17:32.482Z,16.60
2019-03-29T13:19:06.462Z,16.69
2019-03-29T13:20:40.398Z,16.60
2019-03-29T13:22:14.508Z,16.57
2019-03-29T13:23:48.430Z,16.47
2019-03-29T13:25:22.369Z,16.39
2019-03-29T13:26:56.359Z,16.20
2019-03-29T13:28:30.277Z,16.33
2019-03-29T13:30:04.792Z,16.33
2019-03-29T13:31:38.792Z,16.23
2019-03-29T13:33:12.783Z,16.14
2019-03-29T13:34:46.796Z,16.23
2019-03-29T13:36:20.845Z,16.50
2019-03-29T13:37:54.802Z,16.53
2019-03-29T13:39:28.798Z,16.43
2019-03-29T13:41:02.726Z,16.60
2019-03-29T13:42:36.661Z,16.80
2019-03-29T13:44:23.260Z,16.61
2019-03-29T13:45:46.225Z,16.74
2019-03-29T13:47:20.177Z,16.84
2019-03-29T13:48:54.097Z,16.35
2019-03-29T13:50:28.038Z,16.55
2019-03-29T13:52:02.010Z,16.64
2019-03-29T13:53:36.008Z,16.60
2019-03-29T13:55:10.353Z,16.33
2019-03-29T13:56:44.294Z,16.30
2019-03-29T13:58:18.298Z,16.50
2019-03-29T13:59:52.268Z,16.72
2019-03-29T14:01:26.221Z,16.64
2019-03-29T14:03:00.224Z,16.40
2019-03-29T14:04:34.261Z,16.30
2019-03-29T14:06:08.193Z,16.22
2019-03-29T14:07:42.114Z,16.20
2019-03-29T14:09:16.050Z,16.25
2019-03-29T14:10:49.965Z,16.29
2019-03-29T14:12:23.946Z,16.32
2019-03-29T14:13:57.877Z,16.28
2019-03-29T14:15:31.869Z,16.34
2019-03-29T14:17:05.806Z,16.59
2019-03-29T14:18:39.821Z,16.59
2019-03-29T14:20:16.252Z,16.45
2019-03-29T14:21:50.283Z,16.56
2019-03-29T14:23:24.222Z,16.52
2019-03-29T14:24:58.230Z,16.50
2019-03-29T14:26:32.250Z,16.47
2019-03-29T14:28:06.210Z,16.60
2019-03-29T14:29:40.126Z,16.57
2019-03-29T14:31:15.428Z,16.66
2019-03-29T14:32:49.418Z,16.68
2019-03-29T14:34:23.392Z,16.57
2019-03-29T14:35:57.390Z,16.57
2019-03-29T14:37:31.369Z,16.55
2019-03-29T14:39:05.961Z,16.42
2019-03-29T14:40:39.978Z,16.30
2019-03-29T14:42:13.962Z,16.38
2019-03-29T14:43:47.897Z,16.56
2019-03-29T14:45:21.833Z,16.51
2019-03-29T14:46:55.833Z,16.42
2019-03-29T14:48:29.789Z,16.48
2019-03-29T14:50:03.997Z,16.43
2019-03-29T14:51:37.914Z,16.56
2019-03-29T14:53:11.917Z,16.54
2019-03-29T14:54:45.897Z,16.41
2019-03-29T14:56:20.174Z,16.56
2019-03-29T14:57:54.094Z,16.50
2019-03-29T14:59:28.087Z,16.39
2019-03-29T15:01:01.991Z,16.20
2019-03-29T15:02:36.001Z,16.14
2019-03-29T15:04:09.973Z,16.25
2019-03-29T15:05:43.902Z,16.23
2019-03-29T15:07:17.854Z,16.13
2019-03-29T15:08:51.902Z,16.21
2019-03-29T15:10:26.353Z,16.31
2019-03-29T15:12:00.373Z,16.29
2019-03-29T15:13:34.301Z,16.33
2019-03-29T15:15:08.236Z,16.31
2019-03-29T15:16:42.236Z,16.18
2019-03-29T15:18:16.252Z,16.17
2019-03-29T15:19:50.185Z,16.22
2019-03-29T15:21:24.224Z,16.26
2019-03-29T15:22:58.177Z,16.39
2019-03-29T15:24:32.365Z,16.34
2019-03-29T15:26:06.358Z,16.37
2019-03-29T15:27:40.294Z,16.39
2019-03-29T15:29:14.306Z,16.23
2019-03-29T15:30:48.224Z,16.34
2019-03-29T15:32:22.213Z,16.22
2019-03-29T15:33:56.224Z,16.04
2019-03-29T15:35:30.222Z,16.07
2019-03-29T15:37:05.209Z,15.94
2019-03-29T15:38:39.150Z,15.96
2019-03-29T15:40:14.818Z,16.02
2019-03-29T15:41:48.735Z,16.05
2019-03-29T15:43:22.718Z,15.91
2019-03-29T15:44:56.662Z,15.97
2019-03-29T15:46:30.626Z,15.85
2019-03-29T15:48:04.546Z,15.79
2019-03-29T15:49:39.546Z,15.70
2019-03-29T15:51:13.471Z,15.70
2019-03-29T15:52:47.499Z,15.81
2019-03-29T15:54:21.492Z,15.88
2019-03-29T15:55:55.506Z,15.92
2019-03-29T15:57:29.540Z,15.83
2019-03-29T15:59:03.542Z,15.83
2019-03-29T16:00:37.727Z,15.86
2019-03-29T16:02:11.644Z,15.83
2019-03-29T16:03:45.641Z,15.56
2019-03-29T16:05:19.562Z,15.73
2019-03-29T16:06:53.569Z,15.72
2019-03-29T16:08:27.566Z,15.72
2019-03-29T16:10:01.489Z,15.69
2019-03-29T16:11:35.400Z,15.78
2019-03-29T16:13:09.373Z,15.92
2019-03-29T16:14:44.365Z,15.93
2019-03-29T16:16:18.289Z,15.77
2019-03-29T16:17:52.293Z,15.75
2019-03-29T16:19:26.241Z,15.66
2019-03-29T16:21:00.151Z,15.69
2019-03-29T16:22:34.082Z,15.69
2019-03-29T16:24:08.101Z,15.74
2019-03-29T16:25:42.113Z,15.74
2019-03-29T16:27:16.145Z,15.71
2019-03-29T16:28:50.067Z,15.62
2019-03-29T16:30:24.065Z,15.61
2019-03-29T16:31:57.986Z,15.54
2019-03-29T16:33:31.918Z,15.62
2019-03-29T16:35:06.118Z,15.54
2019-03-29T16:36:40.027Z,15.57
2019-03-29T16:38:14.042Z,15.56
2019-03-29T16:39:48.025Z,15.58
2019-03-29T16:41:22.011Z,15.47
2019-03-29T16:42:55.994Z,15.47
2019-03-29T16:44:29.945Z,15.46
2019-03-29T16:46:03.874Z,15.40
2019-03-29T16:47:37.818Z,15.43
2019-03-29T16:49:11.753Z,15.51
2019-03-29T16:50:46.722Z,15.53
2019-03-29T16:52:20.639Z,15.46
2019-03-29T16:53:54.664Z,15.37
2019-03-29T16:55:28.685Z,15.15
2019-03-29T16:57:04.277Z,15.25
2019-03-29T16:58:39.325Z,15.27
2019-03-29T17:00:13.739Z,15.24
2019-03-29T17:01:47.662Z,15.27
2019-03-29T17:03:21.598Z,15.32
2019-03-29T17:04:55.568Z,15.21
2019-03-29T17:06:29.579Z,15.27
2019-03-29T17:08:05.317Z,15.30
2019-03-29T17:09:39.123Z,15.16
2019-03-29T17:11:14.109Z,15.14
2019-03-29T17:12:48.053Z,15.09
2019-03-29T17:14:22.037Z,14.72
2019-03-29T17:16:02.031Z,14.93
2019-03-29T17:17:31.578Z,14.85
2019-03-29T17:19:06.567Z,15.00
2019-03-29T17:20:40.500Z,14.96
2019-03-29T17:22:14.521Z,14.95
2019-03-29T17:23:48.469Z,14.81
2019-03-29T17:25:22.484Z,14.80
2019-03-29T17:26:56.446Z,14.80
2019-03-29T17:28:30.458Z,14.71
2019-03-29T17:30:04.937Z,14.62
2019-03-29T17:31:39.101Z,14.51
2019-03-29T17:33:13.110Z,14.48
2019-03-29T17:34:47.074Z,14.56
2019-03-29T17:36:21.062Z,14.56
2019-03-29T17:37:55.054Z,14.57
2019-03-29T17:39:29.038Z,14.44
2019-03-29T17:41:03.037Z,14.24
2019-03-29T17:42:37.106Z,14.40
2019-03-29T17:44:11.089Z,14.30
2019-03-29T17:45:45.073Z,14.31
2019-03-29T17:47:19.014Z,14.18
2019-03-29T17:48:53.019Z,14.09
2019-03-29T17:50:26.962Z,14.21
2019-03-29T17:52:00.952Z,14.17
2019-03-29T17:53:34.859Z,14.04
2019-03-29T17:55:08.765Z,13.96
2019-03-29T17:56:42.921Z,13.95
2019-03-29T17:58:16.873Z,13.96
2019-03-29T17:59:51.186Z,13.87
2019-03-29T18:01:25.183Z,13.85
2019-03-29T18:02:59.501Z,13.88
2019-03-29T18:04:33.435Z,13.68
2019-03-29T18:06:07.369Z,13.64
2019-03-29T18:07:41.366Z,13.62
2019-03-29T18:09:15.329Z,13.59
2019-03-29T18:10:49.295Z,13.58
2019-03-29T18:12:23.306Z,13.53
2019-03-29T18:13:57.245Z,13.55
2019-03-29T18:15:31.214Z,13.47
2019-03-29T18:17:05.131Z,13.41
2019-03-29T18:18:39.046Z,13.36
2019-03-29T18:20:13.174Z,13.27
2019-03-29T18:21:47.274Z,13.24
2019-03-29T18:23:24.682Z,13.24
2019-03-29T18:24:56.887Z,13.08
2019-03-29T18:26:30.810Z,13.13
2019-03-29T18:28:04.898Z,13.24
2019-03-29T18:29:38.812Z,13.06
2019-03-29T18:31:12.811Z,12.97
2019-03-29T18:32:46.716Z,12.89
2019-03-29T18:34:21.506Z,12.85
2019-03-29T18:35:55.544Z,13.10
2019-03-29T18:37:29.526Z,12.88
2019-03-29T18:39:04.911Z,12.71
2019-03-29T18:40:39.028Z,12.63
2019-03-29T18:42:13.086Z,12.63
2019-03-29T18:43:47.240Z,12.57
2019-03-29T18:45:21.221Z,12.58
2019-03-29T18:46:55.138Z,12.64
2019-03-29T18:48:29.172Z,12.49
2019-03-29T18:50:03.178Z,12.59
2019-03-29T18:51:37.113Z,12.52
2019-03-29T18:53:11.051Z,12.45
2019-03-29T18:54:44.978Z,12.45
2019-03-29T18:56:18.989Z,12.48
2019-03-29T18:57:52.919Z,12.34
2019-03-29T18:59:26.928Z,12.30
2019-03-29T19:01:00.928Z,12.21
2019-03-29T19:02:35.041Z,12.25
2019-03-29T19:04:09.030Z,12.26
2019-03-29T19:05:42.983Z,12.27
2019-03-29T19:07:19.829Z,12.15
2019-03-29T19:08:53.752Z,12.17
2019-03-29T19:10:27.819Z,12.11
2019-03-29T19:12:01.798Z,12.02
2019-03-29T19:13:35.785Z,11.92
2019-03-29T19:15:09.730Z,11.95
2019-03-29T19:16:52.944Z,12.02
2019-03-29T19:18:19.269Z,12.03
2019-03-29T19:19:53.249Z,11.91
2019-03-29T19:21:27.161Z,11.89
2019-03-29T19:23:01.086Z,11.91
2019-03-29T19:24:35.022Z,11.79
2019-03-29T19:26:09.014Z,11.78
2019-03-29T19:27:42.932Z,11.93
2019-03-29T19:29:16.837Z,11.72
2019-03-29T19:30:50.788Z,11.69
2019-03-29T19:32:24.709Z,11.73
2019-03-29T19:33:58.705Z,11.69
2019-03-29T19:35:33.744Z,11.63
2019-03-29T19:37:07.683Z,11.51
2019-03-29T19:38:41.603Z,11.50
2019-03-29T19:40:15.528Z,11.62
2019-03-29T19:41:49.470Z,11.39
2019-03-29T19:43:23.401Z,11.26
2019-03-29T19:44:57.342Z,11.43
2019-03-29T19:46:31.302Z,11.19
2019-03-29T19:48:05.294Z,11.31
2019-03-29T19:49:39.204Z,11.18
2019-03-29T19:51:13.129Z,11.07
2019-03-29T19:52:47.225Z,11.08
2019-03-29T19:54:21.234Z,11.23
2019-03-29T19:55:55.275Z,11.08
2019-03-29T19:57:29.863Z,11.14
2019-03-29T19:59:06.893Z,11.05
2019-03-29T20:00:42.406Z,11.04
2019-03-29T20:02:16.367Z,11.00
2019-03-29T20:03:50.632Z,10.88
2019-03-29T20:05:25.629Z,10.85
2019-03-29T20:06:59.619Z,10.82
2019-03-29T20:08:33.610Z,10.90
2019-03-29T20:10:07.611Z,11.01
2019-03-29T20:11:41.557Z,11.06
2019-03-29T20:13:15.491Z,11.02
2019-03-29T20:14:49.489Z,10.91
2019-03-29T20:16:23.405Z,10.86
2019-03-29T20:17:57.321Z,10.79
2019-03-29T20:19:31.238Z,10.72
2019-03-29T20:21:05.131Z,10.71
2019-03-29T20:22:39.078Z,10.71